sensor_id;sensor_type;location;lat;lon;timestamp;P1;durP1;ratioP1;P2;durP2;ratioP2
12484;SDS011;6307;46.804;11.580;2023-03-01T00:01:19;3.85;;;3.20;;
12484;SDS011;6307;46.804;11.580;2023-03-01T00:03:48;6.45;;;3.40;;
12484;SDS011;6307;46.804;11.580;2023-03-01T00:06:15;4.68;;;2.97;;
12484;SDS011;6307;46.804;11.580;2023-03-01T00:08:41;3.97;;;3.28;;
12484;SDS011;6307;46.804;11.580;2023-03-01T00:13:42;5.75;;;3.20;;
12484;SDS011;6307;46.804;11.580;2023-03-01T00:16:11;3.17;;;2.88;;
12484;SDS011;6307;46.804;11.580;2023-03-01T00:18:41;3.45;;;2.60;;
12484;SDS011;6307;46.804;11.580;2023-03-01T00:21:08;4.68;;;3.05;;
12484;SDS011;6307;46.804;11.580;2023-03-01T00:23:34;4.53;;;3.30;;
12484;SDS011;6307;46.804;11.580;2023-03-01T00:26:01;3.65;;;3.08;;
12484;SDS011;6307;46.804;11.580;2023-03-01T00:28:31;4.25;;;3.45;;
12484;SDS011;6307;46.804;11.580;2023-03-01T00:31:02;6.57;;;3.42;;
12484;SDS011;6307;46.804;11.580;2023-03-01T00:33:43;3.92;;;2.90;;
12484;SDS011;6307;46.804;11.580;2023-03-01T00:36:11;16.63;;;4.03;;
12484;SDS011;6307;46.804;11.580;2023-03-01T00:38:40;244.25;;;153.35;;
12484;SDS011;6307;46.804;11.580;2023-03-01T00:41:11;154.52;;;71.75;;
12484;SDS011;6307;46.804;11.580;2023-03-01T00:43:40;30.92;;;23.33;;
12484;SDS011;6307;46.804;11.580;2023-03-01T00:46:14;25.58;;;19.42;;
12484;SDS011;6307;46.804;11.580;2023-03-01T00:48:43;24.95;;;19.90;;
12484;SDS011;6307;46.804;11.580;2023-03-01T00:51:12;20.27;;;12.82;;
12484;SDS011;6307;46.804;11.580;2023-03-01T00:53:41;10.82;;;8.10;;
12484;SDS011;6307;46.804;11.580;2023-03-01T00:56:08;11.52;;;8.13;;
12484;SDS011;6307;46.804;11.580;2023-03-01T00:58:37;11.18;;;6.53;;
12484;SDS011;6307;46.804;11.580;2023-03-01T01:01:12;6.90;;;4.20;;
12484;SDS011;6307;46.804;11.580;2023-03-01T01:03:52;13.20;;;7.68;;
12484;SDS011;6307;46.804;11.580;2023-03-01T01:06:22;6.13;;;4.82;;
12484;SDS011;6307;46.804;11.580;2023-03-01T01:08:53;11.55;;;5.43;;
12484;SDS011;6307;46.804;11.580;2023-03-01T01:11:21;8.63;;;4.32;;
12484;SDS011;6307;46.804;11.580;2023-03-01T01:13:50;9.57;;;4.35;;
12484;SDS011;6307;46.804;11.580;2023-03-01T01:16:17;7.50;;;4.05;;
12484;SDS011;6307;46.804;11.580;2023-03-01T01:18:46;14.75;;;5.07;;
12484;SDS011;6307;46.804;11.580;2023-03-01T01:21:13;4.57;;;3.30;;
12484;SDS011;6307;46.804;11.580;2023-03-01T01:23:43;7.28;;;3.70;;
12484;SDS011;6307;46.804;11.580;2023-03-01T01:26:14;7.05;;;3.88;;
12484;SDS011;6307;46.804;11.580;2023-03-01T01:28:47;5.18;;;3.40;;
12484;SDS011;6307;46.804;11.580;2023-03-01T01:31:13;5.70;;;4.03;;
12484;SDS011;6307;46.804;11.580;2023-03-01T01:33:39;6.00;;;3.63;;
12484;SDS011;6307;46.804;11.580;2023-03-01T01:36:06;25.58;;;6.50;;
12484;SDS011;6307;46.804;11.580;2023-03-01T01:38:33;6.07;;;3.60;;
12484;SDS011;6307;46.804;11.580;2023-03-01T01:41:00;6.10;;;3.28;;
12484;SDS011;6307;46.804;11.580;2023-03-01T01:43:28;8.95;;;4.85;;
12484;SDS011;6307;46.804;11.580;2023-03-01T01:46:21;12.32;;;6.22;;
12484;SDS011;6307;46.804;11.580;2023-03-01T01:49:00;18.65;;;8.98;;
12484;SDS011;6307;46.804;11.580;2023-03-01T01:51:39;6.43;;;4.07;;
12484;SDS011;6307;46.804;11.580;2023-03-01T01:54:13;66.85;;;38.70;;
12484;SDS011;6307;46.804;11.580;2023-03-01T01:56:48;12.10;;;5.35;;
12484;SDS011;6307;46.804;11.580;2023-03-01T01:59:23;8.57;;;6.00;;
12484;SDS011;6307;46.804;11.580;2023-03-01T02:01:52;6.03;;;4.40;;
12484;SDS011;6307;46.804;11.580;2023-03-01T02:04:18;18.10;;;11.18;;
12484;SDS011;6307;46.804;11.580;2023-03-01T02:06:51;17.95;;;12.48;;
12484;SDS011;6307;46.804;11.580;2023-03-01T02:09:32;5.80;;;4.53;;
12484;SDS011;6307;46.804;11.580;2023-03-01T02:12:00;11.13;;;5.95;;
12484;SDS011;6307;46.804;11.580;2023-03-01T02:14:27;14.65;;;10.27;;
12484;SDS011;6307;46.804;11.580;2023-03-01T02:16:53;121.88;;;59.83;;
12484;SDS011;6307;46.804;11.580;2023-03-01T02:19:24;95.00;;;41.58;;
12484;SDS011;6307;46.804;11.580;2023-03-01T02:22:20;27.63;;;15.13;;
12484;SDS011;6307;46.804;11.580;2023-03-01T02:30:25;194.48;;;89.40;;
12484;SDS011;6307;46.804;11.580;2023-03-01T02:32:52;390.02;;;170.88;;
12484;SDS011;6307;46.804;11.580;2023-03-01T02:35:27;249.25;;;109.75;;
12484;SDS011;6307;46.804;11.580;2023-03-01T02:38:00;191.95;;;102.65;;
12484;SDS011;6307;46.804;11.580;2023-03-01T02:40:28;69.85;;;37.22;;
12484;SDS011;6307;46.804;11.580;2023-03-01T02:42:58;46.63;;;23.77;;
12484;SDS011;6307;46.804;11.580;2023-03-01T02:45:25;8.82;;;6.30;;
12484;SDS011;6307;46.804;11.580;2023-03-01T02:47:56;13.52;;;7.20;;
12484;SDS011;6307;46.804;11.580;2023-03-01T02:56:17;9.35;;;6.13;;
12484;SDS011;6307;46.804;11.580;2023-03-01T02:58:44;10.27;;;6.15;;
12484;SDS011;6307;46.804;11.580;2023-03-01T03:01:13;11.35;;;6.57;;
12484;SDS011;6307;46.804;11.580;2023-03-01T03:03:41;9.70;;;6.65;;
12484;SDS011;6307;46.804;11.580;2023-03-01T03:06:08;7.43;;;4.95;;
12484;SDS011;6307;46.804;11.580;2023-03-01T03:08:34;6.80;;;4.75;;
12484;SDS011;6307;46.804;11.580;2023-03-01T03:11:00;5.70;;;4.82;;
12484;SDS011;6307;46.804;11.580;2023-03-01T03:13:26;9.57;;;4.85;;
12484;SDS011;6307;46.804;11.580;2023-03-01T03:15:53;6.60;;;4.38;;
12484;SDS011;6307;46.804;11.580;2023-03-01T03:18:21;7.10;;;4.57;;
12484;SDS011;6307;46.804;11.580;2023-03-01T03:20:51;5.50;;;4.00;;
12484;SDS011;6307;46.804;11.580;2023-03-01T03:23:19;6.68;;;4.13;;
12484;SDS011;6307;46.804;11.580;2023-03-01T03:25:49;7.32;;;4.30;;
12484;SDS011;6307;46.804;11.580;2023-03-01T03:28:16;6.13;;;4.13;;
12484;SDS011;6307;46.804;11.580;2023-03-01T03:30:43;5.13;;;4.22;;
12484;SDS011;6307;46.804;11.580;2023-03-01T03:33:10;4.75;;;3.90;;
12484;SDS011;6307;46.804;11.580;2023-03-01T03:35:38;5.05;;;3.78;;
12484;SDS011;6307;46.804;11.580;2023-03-01T03:38:13;5.45;;;4.20;;
12484;SDS011;6307;46.804;11.580;2023-03-01T03:41:06;4.57;;;3.60;;
12484;SDS011;6307;46.804;11.580;2023-03-01T03:43:33;5.20;;;4.10;;
12484;SDS011;6307;46.804;11.580;2023-03-01T03:46:02;4.35;;;3.55;;
12484;SDS011;6307;46.804;11.580;2023-03-01T03:48:31;5.53;;;3.70;;
12484;SDS011;6307;46.804;11.580;2023-03-01T03:51:00;4.68;;;3.90;;
12484;SDS011;6307;46.804;11.580;2023-03-01T03:53:27;4.13;;;3.58;;
12484;SDS011;6307;46.804;11.580;2023-03-01T03:55:54;4.05;;;3.60;;
12484;SDS011;6307;46.804;11.580;2023-03-01T03:58:21;4.50;;;3.72;;
12484;SDS011;6307;46.804;11.580;2023-03-01T04:00:51;4.20;;;3.70;;
12484;SDS011;6307;46.804;11.580;2023-03-01T04:03:23;5.60;;;4.18;;
12484;SDS011;6307;46.804;11.580;2023-03-01T04:05:51;4.28;;;3.50;;
12484;SDS011;6307;46.804;11.580;2023-03-01T04:08:18;5.68;;;3.70;;
12484;SDS011;6307;46.804;11.580;2023-03-01T04:10:48;4.85;;;3.25;;
12484;SDS011;6307;46.804;11.580;2023-03-01T04:13:19;6.88;;;3.50;;
12484;SDS011;6307;46.804;11.580;2023-03-01T04:15:50;6.55;;;3.78;;
12484;SDS011;6307;46.804;11.580;2023-03-01T04:18:19;4.82;;;3.10;;
12484;SDS011;6307;46.804;11.580;2023-03-01T04:20:50;6.90;;;3.50;;
12484;SDS011;6307;46.804;11.580;2023-03-01T04:23:19;6.38;;;4.18;;
12484;SDS011;6307;46.804;11.580;2023-03-01T04:25:47;6.00;;;3.50;;
12484;SDS011;6307;46.804;11.580;2023-03-01T04:28:18;7.03;;;4.15;;
12484;SDS011;6307;46.804;11.580;2023-03-01T04:30:55;4.13;;;3.50;;
12484;SDS011;6307;46.804;11.580;2023-03-01T04:33:23;26.67;;;4.90;;
12484;SDS011;6307;46.804;11.580;2023-03-01T04:35:51;21.77;;;4.30;;
12484;SDS011;6307;46.804;11.580;2023-03-01T04:38:18;7.93;;;6.57;;
12484;SDS011;6307;46.804;11.580;2023-03-01T04:40:46;22.33;;;15.82;;
12484;SDS011;6307;46.804;11.580;2023-03-01T04:43:12;9.63;;;4.95;;
12484;SDS011;6307;46.804;11.580;2023-03-01T04:45:42;30.60;;;21.92;;
12484;SDS011;6307;46.804;11.580;2023-03-01T04:48:08;26.77;;;24.05;;
12484;SDS011;6307;46.804;11.580;2023-03-01T04:50:34;22.05;;;13.50;;
12484;SDS011;6307;46.804;11.580;2023-03-01T04:53:01;9.63;;;5.93;;
12484;SDS011;6307;46.804;11.580;2023-03-01T04:55:27;7.65;;;4.65;;
12484;SDS011;6307;46.804;11.580;2023-03-01T04:57:54;9.68;;;5.82;;
12484;SDS011;6307;46.804;11.580;2023-03-01T05:00:20;17.20;;;6.85;;
12484;SDS011;6307;46.804;11.580;2023-03-01T05:02:52;4.53;;;4.03;;
12484;SDS011;6307;46.804;11.580;2023-03-01T05:05:30;10.45;;;4.15;;
12484;SDS011;6307;46.804;11.580;2023-03-01T05:08:01;10.02;;;4.72;;
12484;SDS011;6307;46.804;11.580;2023-03-01T05:10:32;5.03;;;3.72;;
12484;SDS011;6307;46.804;11.580;2023-03-01T05:13:00;18.55;;;5.63;;
12484;SDS011;6307;46.804;11.580;2023-03-01T05:15:29;4.90;;;3.70;;
12484;SDS011;6307;46.804;11.580;2023-03-01T05:17:57;9.65;;;4.22;;
12484;SDS011;6307;46.804;11.580;2023-03-01T05:20:25;4.13;;;3.25;;
12484;SDS011;6307;46.804;11.580;2023-03-01T05:22:58;6.47;;;3.90;;
12484;SDS011;6307;46.804;11.580;2023-03-01T05:25:30;5.50;;;3.63;;
12484;SDS011;6307;46.804;11.580;2023-03-01T05:27:58;6.25;;;4.75;;
12484;SDS011;6307;46.804;11.580;2023-03-01T05:30:30;8.02;;;3.90;;
12484;SDS011;6307;46.804;11.580;2023-03-01T05:33:00;7.10;;;4.50;;
12484;SDS011;6307;46.804;11.580;2023-03-01T05:35:27;9.38;;;3.70;;
12484;SDS011;6307;46.804;11.580;2023-03-01T05:37:54;4.63;;;3.83;;
12484;SDS011;6307;46.804;11.580;2023-03-01T05:40:21;7.70;;;3.13;;
12484;SDS011;6307;46.804;11.580;2023-03-01T05:42:53;4.38;;;3.30;;
12484;SDS011;6307;46.804;11.580;2023-03-01T05:45:22;10.32;;;4.13;;
12484;SDS011;6307;46.804;11.580;2023-03-01T05:47:50;6.72;;;3.30;;
12484;SDS011;6307;46.804;11.580;2023-03-01T05:50:21;6.10;;;3.45;;
12484;SDS011;6307;46.804;11.580;2023-03-01T05:52:57;9.18;;;4.03;;
12484;SDS011;6307;46.804;11.580;2023-03-01T05:55:26;5.88;;;3.38;;
12484;SDS011;6307;46.804;11.580;2023-03-01T05:57:54;17.27;;;5.38;;
12484;SDS011;6307;46.804;11.580;2023-03-01T06:00:22;11.57;;;7.55;;
12484;SDS011;6307;46.804;11.580;2023-03-01T06:02:48;18.58;;;12.88;;
12484;SDS011;6307;46.804;11.580;2023-03-01T06:05:16;6.53;;;4.25;;
12484;SDS011;6307;46.804;11.580;2023-03-01T06:07:43;6.07;;;3.72;;
12484;SDS011;6307;46.804;11.580;2023-03-01T06:10:10;7.30;;;4.53;;
12484;SDS011;6307;46.804;11.580;2023-03-01T06:12:38;47.10;;;26.60;;
12484;SDS011;6307;46.804;11.580;2023-03-01T06:15:06;31.73;;;16.45;;
12484;SDS011;6307;46.804;11.580;2023-03-01T06:17:36;9.55;;;5.15;;
12484;SDS011;6307;46.804;11.580;2023-03-01T06:20:04;38.50;;;18.48;;
12484;SDS011;6307;46.804;11.580;2023-03-01T06:22:33;25.27;;;14.27;;
12484;SDS011;6307;46.804;11.580;2023-03-01T06:25:00;24.10;;;11.25;;
12484;SDS011;6307;46.804;11.580;2023-03-01T06:27:26;8.18;;;5.43;;
12484;SDS011;6307;46.804;11.580;2023-03-01T06:29:52;42.35;;;17.08;;
12484;SDS011;6307;46.804;11.580;2023-03-01T06:32:18;27.40;;;11.80;;
12484;SDS011;6307;46.804;11.580;2023-03-01T06:34:45;58.47;;;24.98;;
12484;SDS011;6307;46.804;11.580;2023-03-01T06:37:11;21.63;;;11.85;;
12484;SDS011;6307;46.804;11.580;2023-03-01T06:39:37;20.40;;;9.50;;
12484;SDS011;6307;46.804;11.580;2023-03-01T06:42:04;17.52;;;7.85;;
12484;SDS011;6307;46.804;11.580;2023-03-01T06:44:30;18.38;;;9.45;;
12484;SDS011;6307;46.804;11.580;2023-03-01T06:46:56;24.35;;;11.23;;
12484;SDS011;6307;46.804;11.580;2023-03-01T06:49:22;7.53;;;5.10;;
12484;SDS011;6307;46.804;11.580;2023-03-01T06:51:48;37.58;;;14.68;;
12484;SDS011;6307;46.804;11.580;2023-03-01T06:54:14;6.70;;;4.40;;
12484;SDS011;6307;46.804;11.580;2023-03-01T06:56:42;8.00;;;4.95;;
12484;SDS011;6307;46.804;11.580;2023-03-01T06:59:11;5.72;;;3.70;;
12484;SDS011;6307;46.804;11.580;2023-03-01T07:01:37;14.93;;;5.50;;
12484;SDS011;6307;46.804;11.580;2023-03-01T07:04:04;11.57;;;4.85;;
12484;SDS011;6307;46.804;11.580;2023-03-01T07:06:30;26.88;;;11.45;;
12484;SDS011;6307;46.804;11.580;2023-03-01T07:08:56;48.88;;;18.00;;
12484;SDS011;6307;46.804;11.580;2023-03-01T07:11:22;25.13;;;12.00;;
12484;SDS011;6307;46.804;11.580;2023-03-01T07:13:48;12.35;;;6.75;;
12484;SDS011;6307;46.804;11.580;2023-03-01T07:16:14;4.35;;;3.17;;
12484;SDS011;6307;46.804;11.580;2023-03-01T07:18:41;3.65;;;3.17;;
12484;SDS011;6307;46.804;11.580;2023-03-01T07:21:08;4.15;;;3.22;;
12484;SDS011;6307;46.804;11.580;2023-03-01T07:23:38;5.53;;;3.00;;
12484;SDS011;6307;46.804;11.580;2023-03-01T07:26:04;4.22;;;2.95;;
12484;SDS011;6307;46.804;11.580;2023-03-01T07:28:31;3.55;;;2.97;;
12484;SDS011;6307;46.804;11.580;2023-03-01T07:31:03;4.25;;;3.53;;
12484;SDS011;6307;46.804;11.580;2023-03-01T07:33:31;3.10;;;2.70;;
12484;SDS011;6307;46.804;11.580;2023-03-01T07:35:57;4.18;;;3.15;;
12484;SDS011;6307;46.804;11.580;2023-03-01T07:38:26;4.28;;;2.90;;
12484;SDS011;6307;46.804;11.580;2023-03-01T07:40:53;3.78;;;2.78;;
12484;SDS011;6307;46.804;11.580;2023-03-01T07:43:24;4.93;;;3.05;;
12484;SDS011;6307;46.804;11.580;2023-03-01T07:45:50;3.47;;;2.88;;
12484;SDS011;6307;46.804;11.580;2023-03-01T07:48:16;3.63;;;2.95;;
12484;SDS011;6307;46.804;11.580;2023-03-01T07:50:43;4.55;;;3.08;;
12484;SDS011;6307;46.804;11.580;2023-03-01T07:53:09;3.58;;;3.08;;
12484;SDS011;6307;46.804;11.580;2023-03-01T07:55:36;6.07;;;2.88;;
12484;SDS011;6307;46.804;11.580;2023-03-01T07:58:02;4.40;;;3.22;;
12484;SDS011;6307;46.804;11.580;2023-03-01T08:00:29;4.13;;;2.58;;
12484;SDS011;6307;46.804;11.580;2023-03-01T08:02:58;3.83;;;2.90;;
12484;SDS011;6307;46.804;11.580;2023-03-01T08:05:26;2.88;;;2.55;;
12484;SDS011;6307;46.804;11.580;2023-03-01T08:07:53;5.80;;;2.85;;
12484;SDS011;6307;46.804;11.580;2023-03-01T08:10:19;6.03;;;3.15;;
12484;SDS011;6307;46.804;11.580;2023-03-01T08:12:45;9.52;;;2.70;;
12484;SDS011;6307;46.804;11.580;2023-03-01T08:15:11;6.13;;;2.78;;
12484;SDS011;6307;46.804;11.580;2023-03-01T08:17:38;3.20;;;2.28;;
12484;SDS011;6307;46.804;11.580;2023-03-01T08:20:04;3.70;;;2.60;;
12484;SDS011;6307;46.804;11.580;2023-03-01T08:22:31;3.05;;;2.67;;
12484;SDS011;6307;46.804;11.580;2023-03-01T08:24:58;3.30;;;2.30;;
12484;SDS011;6307;46.804;11.580;2023-03-01T08:27:24;3.40;;;2.30;;
12484;SDS011;6307;46.804;11.580;2023-03-01T08:29:50;3.80;;;2.20;;
12484;SDS011;6307;46.804;11.580;2023-03-01T08:32:16;2.67;;;2.08;;
12484;SDS011;6307;46.804;11.580;2023-03-01T08:34:42;2.78;;;2.08;;
12484;SDS011;6307;46.804;11.580;2023-03-01T08:37:12;5.57;;;2.40;;
12484;SDS011;6307;46.804;11.580;2023-03-01T08:39:38;2.10;;;1.90;;
12484;SDS011;6307;46.804;11.580;2023-03-01T08:42:04;3.35;;;2.38;;
12484;SDS011;6307;46.804;11.580;2023-03-01T08:44:30;2.92;;;2.10;;
12484;SDS011;6307;46.804;11.580;2023-03-01T08:46:56;2.65;;;2.35;;
12484;SDS011;6307;46.804;11.580;2023-03-01T08:49:23;4.45;;;2.17;;
12484;SDS011;6307;46.804;11.580;2023-03-01T08:51:49;4.40;;;2.17;;
12484;SDS011;6307;46.804;11.580;2023-03-01T08:54:17;2.53;;;2.10;;
12484;SDS011;6307;46.804;11.580;2023-03-01T08:56:46;2.10;;;1.90;;
12484;SDS011;6307;46.804;11.580;2023-03-01T08:59:13;2.15;;;1.90;;
12484;SDS011;6307;46.804;11.580;2023-03-01T09:01:42;2.70;;;2.10;;
12484;SDS011;6307;46.804;11.580;2023-03-01T09:04:08;4.00;;;2.00;;
12484;SDS011;6307;46.804;11.580;2023-03-01T09:06:36;2.58;;;2.20;;
12484;SDS011;6307;46.804;11.580;2023-03-01T09:09:03;3.03;;;2.00;;
12484;SDS011;6307;46.804;11.580;2023-03-01T09:11:31;2.80;;;2.20;;
12484;SDS011;6307;46.804;11.580;2023-03-01T09:13:58;2.47;;;2.20;;
12484;SDS011;6307;46.804;11.580;2023-03-01T09:16:24;2.63;;;2.15;;
12484;SDS011;6307;46.804;11.580;2023-03-01T09:18:53;2.35;;;1.92;;
12484;SDS011;6307;46.804;11.580;2023-03-01T09:21:21;3.90;;;2.03;;
12484;SDS011;6307;46.804;11.580;2023-03-01T09:23:49;5.80;;;2.10;;
12484;SDS011;6307;46.804;11.580;2023-03-01T09:26:16;4.15;;;2.20;;
12484;SDS011;6307;46.804;11.580;2023-03-01T09:28:46;2.25;;;1.88;;
12484;SDS011;6307;46.804;11.580;2023-03-01T09:31:15;3.58;;;2.13;;
12484;SDS011;6307;46.804;11.580;2023-03-01T09:33:45;2.10;;;1.90;;
12484;SDS011;6307;46.804;11.580;2023-03-01T09:36:15;3.05;;;1.65;;
12484;SDS011;6307;46.804;11.580;2023-03-01T09:38:45;5.20;;;2.30;;
12484;SDS011;6307;46.804;11.580;2023-03-01T09:44:21;2.53;;;2.00;;
12484;SDS011;6307;46.804;11.580;2023-03-01T09:47:01;3.17;;;1.90;;
12484;SDS011;6307;46.804;11.580;2023-03-01T09:49:29;3.10;;;2.10;;
12484;SDS011;6307;46.804;11.580;2023-03-01T09:52:23;4.00;;;2.10;;
12484;SDS011;6307;46.804;11.580;2023-03-01T09:55:05;4.20;;;2.50;;
12484;SDS011;6307;46.804;11.580;2023-03-01T10:00:20;4.47;;;2.07;;
12484;SDS011;6307;46.804;11.580;2023-03-01T10:08:30;3.17;;;1.50;;
12484;SDS011;6307;46.804;11.580;2023-03-01T10:11:04;1.60;;;1.50;;
12484;SDS011;6307;46.804;11.580;2023-03-01T10:16:38;2.20;;;1.87;;
12484;SDS011;6307;46.804;11.580;2023-03-01T10:22:13;2.13;;;1.60;;
12484;SDS011;6307;46.804;11.580;2023-03-01T10:24:49;2.20;;;1.70;;
12484;SDS011;6307;46.804;11.580;2023-03-01T10:27:25;8.93;;;2.13;;
12484;SDS011;6307;46.804;11.580;2023-03-01T10:33:40;3.87;;;2.90;;
12484;SDS011;6307;46.804;11.580;2023-03-01T10:36:02;68.97;;;62.50;;
12484;SDS011;6307;46.804;11.580;2023-03-01T10:38:30;4.60;;;2.43;;
12484;SDS011;6307;46.804;11.580;2023-03-01T10:41:14;2.90;;;2.47;;
12484;SDS011;6307;46.804;11.580;2023-03-01T10:43:47;2.30;;;2.10;;
12484;SDS011;6307;46.804;11.580;2023-03-01T10:51:46;13.33;;;2.93;;
12484;SDS011;6307;46.804;11.580;2023-03-01T10:56:56;1.90;;;1.47;;
12484;SDS011;6307;46.804;11.580;2023-03-01T10:59:32;2.60;;;1.70;;
12484;SDS011;6307;46.804;11.580;2023-03-01T11:04:56;4.30;;;1.70;;
12484;SDS011;6307;46.804;11.580;2023-03-01T11:07:22;16.63;;;2.53;;
12484;SDS011;6307;46.804;11.580;2023-03-01T11:09:48;2.53;;;1.40;;
12484;SDS011;6307;46.804;11.580;2023-03-01T11:12:16;1.90;;;1.30;;
12484;SDS011;6307;46.804;11.580;2023-03-01T11:14:55;2.97;;;1.70;;
12484;SDS011;6307;46.804;11.580;2023-03-01T11:17:29;3.33;;;1.70;;
12484;SDS011;6307;46.804;11.580;2023-03-01T11:22:54;6.47;;;1.50;;
12484;SDS011;6307;46.804;11.580;2023-03-01T11:25:31;24.40;;;4.13;;
12484;SDS011;6307;46.804;11.580;2023-03-01T11:28:04;1.37;;;0.97;;
12484;SDS011;6307;46.804;11.580;2023-03-01T11:33:17;8.47;;;2.87;;
12484;SDS011;6307;46.804;11.580;2023-03-01T11:38:48;3.23;;;1.77;;
12484;SDS011;6307;46.804;11.580;2023-03-01T11:41:25;3.87;;;1.20;;
12484;SDS011;6307;46.804;11.580;2023-03-01T11:43:58;4.60;;;1.70;;
12484;SDS011;6307;46.804;11.580;2023-03-01T11:49:22;2.60;;;1.30;;
12484;SDS011;6307;46.804;11.580;2023-03-01T11:52:20;7.03;;;1.90;;
12484;SDS011;6307;46.804;11.580;2023-03-01T11:55:29;4.17;;;1.60;;
12484;SDS011;6307;46.804;11.580;2023-03-01T11:58:17;3.47;;;1.60;;
12484;SDS011;6307;46.804;11.580;2023-03-01T12:01:27;6.07;;;1.63;;
12484;SDS011;6307;46.804;11.580;2023-03-01T12:04:18;6.70;;;1.70;;
12484;SDS011;6307;46.804;11.580;2023-03-01T12:22:46;6.23;;;1.50;;
12484;SDS011;6307;46.804;11.580;2023-03-01T12:26:06;4.27;;;1.50;;
12484;SDS011;6307;46.804;11.580;2023-03-01T12:28:52;4.07;;;1.40;;
12484;SDS011;6307;46.804;11.580;2023-03-01T12:40:33;6.53;;;1.90;;
12484;SDS011;6307;46.804;11.580;2023-03-01T12:51:39;4.07;;;1.53;;
12484;SDS011;6307;46.804;11.580;2023-03-01T12:54:30;7.77;;;1.60;;
12484;SDS011;6307;46.804;11.580;2023-03-01T12:57:01;5.57;;;1.80;;
12484;SDS011;6307;46.804;11.580;2023-03-01T13:03:05;5.13;;;1.57;;
12484;SDS011;6307;46.804;11.580;2023-03-01T13:05:56;7.80;;;1.83;;
12484;SDS011;6307;46.804;11.580;2023-03-01T13:08:44;3.90;;;1.50;;
12484;SDS011;6307;46.804;11.580;2023-03-01T13:11:27;5.17;;;1.67;;
12484;SDS011;6307;46.804;11.580;2023-03-01T13:14:44;9.97;;;1.70;;
12484;SDS011;6307;46.804;11.580;2023-03-01T13:16:46;6.50;;;1.70;;
12484;SDS011;6307;46.804;11.580;2023-03-01T13:19:26;8.67;;;2.03;;
12484;SDS011;6307;46.804;11.580;2023-03-01T13:21:55;3.37;;;1.40;;
12484;SDS011;6307;46.804;11.580;2023-03-01T13:32:23;3.17;;;1.40;;
12484;SDS011;6307;46.804;11.580;2023-03-01T13:34:58;6.77;;;1.70;;
12484;SDS011;6307;46.804;11.580;2023-03-01T13:37:37;6.37;;;1.50;;
12484;SDS011;6307;46.804;11.580;2023-03-01T13:40:56;7.73;;;1.93;;
12484;SDS011;6307;46.804;11.580;2023-03-01T13:42:53;5.23;;;1.80;;
12484;SDS011;6307;46.804;11.580;2023-03-01T13:45:22;7.47;;;2.13;;
12484;SDS011;6307;46.804;11.580;2023-03-01T13:47:59;9.43;;;2.00;;
12484;SDS011;6307;46.804;11.580;2023-03-01T13:50:37;5.17;;;1.97;;
12484;SDS011;6307;46.804;11.580;2023-03-01T13:53:14;8.43;;;1.73;;
12484;SDS011;6307;46.804;11.580;2023-03-01T13:55:55;8.00;;;2.33;;
12484;SDS011;6307;46.804;11.580;2023-03-01T13:58:30;4.13;;;1.43;;
12484;SDS011;6307;46.804;11.580;2023-03-01T14:01:22;2.13;;;1.30;;
12484;SDS011;6307;46.804;11.580;2023-03-01T14:03:51;3.40;;;1.53;;
12484;SDS011;6307;46.804;11.580;2023-03-01T14:06:22;4.80;;;2.00;;
12484;SDS011;6307;46.804;11.580;2023-03-01T14:20:29;9.23;;;1.90;;
12484;SDS011;6307;46.804;11.580;2023-03-01T14:23:02;5.67;;;1.80;;
12484;SDS011;6307;46.804;11.580;2023-03-01T14:25:39;4.27;;;1.63;;
12484;SDS011;6307;46.804;11.580;2023-03-01T14:30:52;5.20;;;1.73;;
12484;SDS011;6307;46.804;11.580;2023-03-01T14:33:31;12.57;;;1.70;;
12484;SDS011;6307;46.804;11.580;2023-03-01T14:38:37;7.40;;;1.93;;
12484;SDS011;6307;46.804;11.580;2023-03-01T14:41:07;6.83;;;1.90;;
12484;SDS011;6307;46.804;11.580;2023-03-01T14:43:49;5.37;;;1.70;;
12484;SDS011;6307;46.804;11.580;2023-03-01T14:46:19;5.60;;;1.90;;
12484;SDS011;6307;46.804;11.580;2023-03-01T14:48:53;9.00;;;1.90;;
12484;SDS011;6307;46.804;11.580;2023-03-01T14:51:26;4.70;;;1.90;;
12484;SDS011;6307;46.804;11.580;2023-03-01T14:53:52;8.77;;;2.17;;
12484;SDS011;6307;46.804;11.580;2023-03-01T14:56:19;5.60;;;1.57;;
12484;SDS011;6307;46.804;11.580;2023-03-01T14:58:45;6.53;;;1.50;;
12484;SDS011;6307;46.804;11.580;2023-03-01T15:01:16;9.17;;;2.13;;
12484;SDS011;6307;46.804;11.580;2023-03-01T15:03:47;4.53;;;1.80;;
12484;SDS011;6307;46.804;11.580;2023-03-01T15:06:17;4.03;;;1.50;;
12484;SDS011;6307;46.804;11.580;2023-03-01T15:08:48;2.73;;;1.77;;
12484;SDS011;6307;46.804;11.580;2023-03-01T15:11:27;8.87;;;2.20;;
12484;SDS011;6307;46.804;11.580;2023-03-01T15:13:56;6.40;;;2.07;;
12484;SDS011;6307;46.804;11.580;2023-03-01T15:16:24;9.27;;;1.93;;
12484;SDS011;6307;46.804;11.580;2023-03-01T15:18:57;6.70;;;2.00;;
12484;SDS011;6307;46.804;11.580;2023-03-01T15:21:36;6.23;;;1.83;;
12484;SDS011;6307;46.804;11.580;2023-03-01T15:26:55;11.40;;;7.13;;
12484;SDS011;6307;46.804;11.580;2023-03-01T15:29:31;8.57;;;2.23;;
12484;SDS011;6307;46.804;11.580;2023-03-01T15:32:06;6.43;;;2.00;;
12484;SDS011;6307;46.804;11.580;2023-03-01T15:34:52;8.30;;;1.80;;
12484;SDS011;6307;46.804;11.580;2023-03-01T15:37:39;6.23;;;1.83;;
12484;SDS011;6307;46.804;11.580;2023-03-01T15:40:28;5.40;;;2.90;;
12484;SDS011;6307;46.804;11.580;2023-03-01T15:43:01;8.37;;;4.27;;
12484;SDS011;6307;46.804;11.580;2023-03-01T15:45:31;6.87;;;1.80;;
12484;SDS011;6307;46.804;11.580;2023-03-01T15:48:04;13.27;;;2.30;;
12484;SDS011;6307;46.804;11.580;2023-03-01T15:50:43;6.37;;;2.17;;
12484;SDS011;6307;46.804;11.580;2023-03-01T15:53:18;9.53;;;5.60;;
12484;SDS011;6307;46.804;11.580;2023-03-01T15:55:44;10.87;;;9.83;;
12484;SDS011;6307;46.804;11.580;2023-03-01T15:58:21;5.97;;;2.00;;
12484;SDS011;6307;46.804;11.580;2023-03-01T16:00:50;5.97;;;2.10;;
12484;SDS011;6307;46.804;11.580;2023-03-01T16:03:21;9.60;;;2.30;;
12484;SDS011;6307;46.804;11.580;2023-03-01T16:05:48;5.73;;;2.20;;
12484;SDS011;6307;46.804;11.580;2023-03-01T16:08:15;5.70;;;1.80;;
12484;SDS011;6307;46.804;11.580;2023-03-01T16:10:43;7.47;;;2.47;;
12484;SDS011;6307;46.804;11.580;2023-03-01T16:13:11;7.03;;;2.20;;
12484;SDS011;6307;46.804;11.580;2023-03-01T16:15:38;6.13;;;2.27;;
12484;SDS011;6307;46.804;11.580;2023-03-01T16:18:05;9.87;;;2.30;;
12484;SDS011;6307;46.804;11.580;2023-03-01T16:20:33;8.03;;;2.30;;
12484;SDS011;6307;46.804;11.580;2023-03-01T16:23:04;9.63;;;2.37;;
12484;SDS011;6307;46.804;11.580;2023-03-01T16:25:33;7.43;;;2.50;;
12484;SDS011;6307;46.804;11.580;2023-03-01T16:28:00;5.77;;;2.20;;
12484;SDS011;6307;46.804;11.580;2023-03-01T16:30:30;8.17;;;2.10;;
12484;SDS011;6307;46.804;11.580;2023-03-01T16:32:56;7.53;;;2.70;;
12484;SDS011;6307;46.804;11.580;2023-03-01T16:35:23;5.27;;;2.30;;
12484;SDS011;6307;46.804;11.580;2023-03-01T16:37:49;5.57;;;2.53;;
12484;SDS011;6307;46.804;11.580;2023-03-01T16:42:53;12.40;;;2.70;;
12484;SDS011;6307;46.804;11.580;2023-03-01T16:45:24;6.63;;;2.60;;
12484;SDS011;6307;46.804;11.580;2023-03-01T16:48:01;12.47;;;2.60;;
12484;SDS011;6307;46.804;11.580;2023-03-01T16:50:28;12.53;;;3.43;;
12484;SDS011;6307;46.804;11.580;2023-03-01T16:52:54;6.60;;;2.40;;
12484;SDS011;6307;46.804;11.580;2023-03-01T16:55:20;7.10;;;2.50;;
12484;SDS011;6307;46.804;11.580;2023-03-01T16:57:46;9.07;;;2.40;;
12484;SDS011;6307;46.804;11.580;2023-03-01T17:00:12;8.20;;;2.87;;
12484;SDS011;6307;46.804;11.580;2023-03-01T17:02:42;15.10;;;3.03;;
12484;SDS011;6307;46.804;11.580;2023-03-01T17:05:09;8.50;;;3.07;;
12484;SDS011;6307;46.804;11.580;2023-03-01T17:07:37;10.50;;;2.63;;
12484;SDS011;6307;46.804;11.580;2023-03-01T17:10:06;12.57;;;4.03;;